Terminal Aerodrome Forecast
Issued by NWS Flagstaff, AZ

Home | Current Version | Previous Version | Text Only | Print | Product List | Glossary On
Versions: 1 2 3 4 5 6 7 8 9 10 11 12 13
079
FTUS45 KFGZ 252320
TAFFLG
TAF
KFLG 252320Z 2600/2624 22016G26KT P6SM SKC
     FM260300 VRB05KT P6SM SCT040
     FM261800 24012G20KT P6SM BKN070 OVC100 PROB30 2619/2624 P6SM
      -TSRA BKN050CB=

USA.gov is the U.S. government's official web portal to all federal, state and local government web resources and services.